createdAt,value
2023-01-29T00:02:10.364Z,13.15
2023-01-29T00:04:37.239Z,15.07
2023-01-29T00:07:04.263Z,9.10
2023-01-29T00:09:35.047Z,9.73
2023-01-29T00:12:04.822Z,12.40
2023-01-29T00:14:31.685Z,11.27
2023-01-29T00:16:58.416Z,11.45
2023-01-29T00:19:25.356Z,13.85
2023-01-29T00:21:52.106Z,14.45
2023-01-29T00:24:22.708Z,12.45
2023-01-29T00:26:52.416Z,14.00
2023-01-29T00:29:19.166Z,10.40
2023-01-29T00:34:12.563Z,15.52
2023-01-29T00:39:11.740Z,12.65
2023-01-29T00:41:57.620Z,13.40
2023-01-29T00:47:31.432Z,12.93
2023-01-29T00:49:58.216Z,11.32
2023-01-29T00:52:27.378Z,16.70
2023-01-29T00:54:56.681Z,12.25
2023-01-29T00:57:25.516Z,12.18
2023-01-29T01:02:38.256Z,10.18
2023-01-29T01:05:07.760Z,10.77
2023-01-29T01:07:34.815Z,10.20
2023-01-29T01:10:20.246Z,12.05
2023-01-29T01:12:50.804Z,29.70
2023-01-29T01:15:17.881Z,10.50
2023-01-29T01:20:13.012Z,12.15
2023-01-29T01:22:39.655Z,10.82
2023-01-29T01:25:06.542Z,11.68
2023-01-29T01:27:34.795Z,9.35
2023-01-29T01:30:01.387Z,9.95
2023-01-29T01:32:52.879Z,9.25
2023-01-29T01:35:19.436Z,9.65
2023-01-29T01:37:45.986Z,10.77
2023-01-29T01:40:19.317Z,8.63
2023-01-29T01:42:50.947Z,9.98
2023-01-29T01:45:37.840Z,11.65
2023-01-29T01:48:16.519Z,9.93
2023-01-29T01:50:58.813Z,10.52
2023-01-29T01:53:40.380Z,12.63
2023-01-29T01:56:14.208Z,10.73
2023-01-29T01:58:50.515Z,9.00
2023-01-29T02:01:18.193Z,11.35
2023-01-29T02:04:09.260Z,12.18
2023-01-29T02:06:55.559Z,12.73
2023-01-29T02:09:36.618Z,13.02
2023-01-29T02:12:08.954Z,13.77
2023-01-29T02:14:39.549Z,11.75
2023-01-29T02:17:08.539Z,11.30
2023-01-29T02:19:50.421Z,11.70
2023-01-29T02:22:29.290Z,9.80
2023-01-29T02:24:55.816Z,11.05
2023-01-29T02:27:48.093Z,10.45
2023-01-29T02:30:28.614Z,11.55
2023-01-29T02:33:07.520Z,12.10
2023-01-29T02:35:43.347Z,11.10
2023-01-29T02:38:18.100Z,10.32
2023-01-29T02:41:02.363Z,10.43
2023-01-29T02:43:48.968Z,11.55
2023-01-29T02:46:35.219Z,11.35
2023-01-29T02:49:07.615Z,16.75
2023-01-29T02:51:57.352Z,13.75
2023-01-29T02:54:33.974Z,12.63
2023-01-29T02:57:16.369Z,12.95
2023-01-29T02:59:56.850Z,9.48
2023-01-29T03:05:15.422Z,9.00
2023-01-29T03:07:52.057Z,11.18
2023-01-29T03:10:23.380Z,12.07
2023-01-29T03:13:06.523Z,10.35
2023-01-29T03:18:16.231Z,11.25
2023-01-29T03:20:54.582Z,12.38
2023-01-29T03:26:41.735Z,10.90
2023-01-29T03:29:28.396Z,10.55
2023-01-29T03:32:09.217Z,10.38
2023-01-29T03:34:47.017Z,11.32
2023-01-29T03:37:39.933Z,10.07
2023-01-29T03:40:08.933Z,9.07
2023-01-29T03:42:59.561Z,11.48
2023-01-29T03:45:43.409Z,12.52
2023-01-29T03:48:25.114Z,12.65
2023-01-29T03:51:01.309Z,11.73
2023-01-29T03:53:59.109Z,11.93
2023-01-29T03:56:28.536Z,10.43
2023-01-29T03:59:04.762Z,13.73
2023-01-29T04:01:41.188Z,13.23
2023-01-29T04:04:27.900Z,12.40
2023-01-29T04:07:03.532Z,10.68
2023-01-29T04:09:47.237Z,12.27
2023-01-29T04:12:22.526Z,13.77
2023-01-29T04:14:51.634Z,11.48
2023-01-29T04:17:33.784Z,11.73
2023-01-29T04:20:04.090Z,12.02
2023-01-29T04:22:33.424Z,15.63
2023-01-29T04:25:08.682Z,10.80
2023-01-29T04:27:41.034Z,12.05
2023-01-29T04:30:22.260Z,11.23
2023-01-29T04:33:08.522Z,10.27
2023-01-29T04:36:00.105Z,12.63
2023-01-29T04:38:37.567Z,11.68
2023-01-29T04:41:16.696Z,11.20
2023-01-29T04:43:57.297Z,11.80
2023-01-29T04:46:48.938Z,11.73
2023-01-29T04:49:27.591Z,12.25
2023-01-29T04:52:13.987Z,10.40
2023-01-29T04:55:05.001Z,10.40
2023-01-29T04:58:07.643Z,11.45
2023-01-29T05:00:40.873Z,13.43
2023-01-29T05:03:09.680Z,12.90
2023-01-29T05:05:36.685Z,11.32
2023-01-29T05:08:05.010Z,13.65
2023-01-29T05:10:32.763Z,11.90
2023-01-29T05:13:06.857Z,13.15
2023-01-29T05:15:45.647Z,13.00
2023-01-29T05:18:23.837Z,13.68
2023-01-29T05:20:52.264Z,12.55
2023-01-29T05:23:22.696Z,11.10
2023-01-29T05:28:20.279Z,11.70
2023-01-29T05:30:52.426Z,12.65
2023-01-29T05:36:01.822Z,12.48
2023-01-29T05:41:03.460Z,13.98
2023-01-29T05:43:35.513Z,10.18
2023-01-29T05:46:13.822Z,11.57
2023-01-29T05:51:18.285Z,13.30
2023-01-29T05:53:57.592Z,13.77
2023-01-29T05:56:33.171Z,10.63
2023-01-29T05:58:59.882Z,11.45
2023-01-29T06:01:26.380Z,12.63
2023-01-29T06:03:52.919Z,14.07
2023-01-29T06:06:19.399Z,12.43
2023-01-29T06:08:46.069Z,12.32
2023-01-29T06:11:14.252Z,10.13
2023-01-29T06:13:41.134Z,12.02
2023-01-29T06:16:09.908Z,10.88
2023-01-29T06:18:37.347Z,10.13
2023-01-29T06:21:07.264Z,10.90
2023-01-29T06:23:37.157Z,13.13
2023-01-29T06:26:08.903Z,12.00
2023-01-29T06:28:35.496Z,12.95
2023-01-29T06:31:23.693Z,13.13
2023-01-29T06:33:50.213Z,12.93
2023-01-29T06:36:16.628Z,10.85
2023-01-29T06:38:43.050Z,14.95
2023-01-29T06:41:11.565Z,12.85
2023-01-29T06:43:38.734Z,14.07
2023-01-29T06:46:07.816Z,13.43
2023-01-29T06:48:34.493Z,13.13
2023-01-29T06:51:10.142Z,11.80
2023-01-29T06:53:40.339Z,14.15
2023-01-29T06:56:07.583Z,11.95
2023-01-29T06:58:38.548Z,14.13
2023-01-29T07:01:11.716Z,11.77
2023-01-29T07:03:42.738Z,14.05
2023-01-29T07:06:12.767Z,11.75
2023-01-29T07:08:40.227Z,14.45
2023-01-29T07:11:07.381Z,14.73
2023-01-29T07:13:34.424Z,11.93
2023-01-29T07:16:02.127Z,13.25
2023-01-29T07:18:29.534Z,14.73
2023-01-29T07:20:56.640Z,13.90
2023-01-29T07:23:23.410Z,12.10
2023-01-29T07:25:50.284Z,12.43
2023-01-29T07:28:22.497Z,11.68
2023-01-29T07:33:15.375Z,13.15
2023-01-29T07:35:43.331Z,14.00
2023-01-29T07:38:13.582Z,11.38
2023-01-29T07:40:40.451Z,14.63
2023-01-29T07:43:08.234Z,11.82
2023-01-29T07:45:36.580Z,11.60
2023-01-29T07:48:06.994Z,10.73
2023-01-29T07:50:35.187Z,13.00
2023-01-29T07:53:04.434Z,13.68
2023-01-29T07:55:31.738Z,12.68
2023-01-29T07:58:02.365Z,14.40
2023-01-29T08:00:30.884Z,11.80
2023-01-29T08:03:09.562Z,13.63
2023-01-29T08:05:36.039Z,14.93
2023-01-29T08:08:06.861Z,14.68
2023-01-29T08:10:38.880Z,13.00
2023-01-29T08:13:06.638Z,13.00
2023-01-29T08:15:33.653Z,13.77
2023-01-29T08:18:01.673Z,14.52
2023-01-29T08:20:28.302Z,13.38
2023-01-29T08:23:14.273Z,13.43
2023-01-29T08:25:41.168Z,13.20
2023-01-29T08:28:08.688Z,13.55
2023-01-29T08:30:36.120Z,12.93
2023-01-29T08:33:04.559Z,15.38
2023-01-29T08:35:31.734Z,14.02
2023-01-29T08:40:29.081Z,14.35
2023-01-29T08:45:26.707Z,16.95
2023-01-29T08:47:53.190Z,13.90
2023-01-29T08:50:20.071Z,13.95
2023-01-29T08:52:47.244Z,13.88
2023-01-29T08:55:14.216Z,13.38
2023-01-29T08:57:41.001Z,15.75
2023-01-29T09:00:10.316Z,15.07
2023-01-29T09:02:37.896Z,15.77
2023-01-29T09:05:05.674Z,15.20
2023-01-29T09:07:32.449Z,14.13
2023-01-29T09:09:59.063Z,14.52
2023-01-29T09:12:25.659Z,14.13
2023-01-29T09:14:52.201Z,13.38
2023-01-29T09:17:19.067Z,14.65
2023-01-29T09:19:45.701Z,14.05
2023-01-29T09:22:12.121Z,14.05
2023-01-29T09:24:39.272Z,14.80
2023-01-29T09:27:06.293Z,12.65
2023-01-29T09:29:35.769Z,14.55
2023-01-29T09:32:04.428Z,13.93
2023-01-29T09:34:31.199Z,16.98
2023-01-29T09:37:44.957Z,16.02
2023-01-29T09:39:50.873Z,13.43
2023-01-29T09:42:47.370Z,12.18
2023-01-29T09:45:48.206Z,16.58
2023-01-29T09:48:20.602Z,14.20
2023-01-29T09:50:54.112Z,12.45
2023-01-29T09:53:53.571Z,13.15
2023-01-29T09:56:29.591Z,12.80
2023-01-29T09:59:02.064Z,13.90
2023-01-29T10:01:51.337Z,13.25
2023-01-29T10:04:38.644Z,13.32
2023-01-29T10:07:47.437Z,12.50
2023-01-29T10:10:32.094Z,10.60
2023-01-29T10:13:13.891Z,11.38
2023-01-29T10:19:08.183Z,11.25
2023-01-29T10:21:59.154Z,12.57
2023-01-29T10:24:57.429Z,13.60
2023-01-29T10:27:31.317Z,13.57
2023-01-29T10:29:59.034Z,14.27
2023-01-29T10:32:26.897Z,11.57
2023-01-29T10:35:06.095Z,14.30
2023-01-29T10:37:42.939Z,13.43
2023-01-29T10:40:23.509Z,12.65
2023-01-29T10:45:57.210Z,12.40
2023-01-29T10:48:37.168Z,15.68
2023-01-29T10:51:21.165Z,12.18
2023-01-29T10:54:10.848Z,11.88
2023-01-29T10:56:52.601Z,11.52
2023-01-29T11:00:03.018Z,13.30
2023-01-29T11:02:27.697Z,12.30
2023-01-29T11:04:54.292Z,13.88
2023-01-29T11:07:23.114Z,14.18
2023-01-29T11:09:55.505Z,13.55
2023-01-29T11:12:31.034Z,20.95
2023-01-29T11:15:14.679Z,11.60
2023-01-29T11:20:30.348Z,18.52
2023-01-29T11:23:07.703Z,13.43
2023-01-29T11:25:47.832Z,14.00
2023-01-29T11:28:34.474Z,18.20
2023-01-29T11:33:34.456Z,13.40
2023-01-29T11:36:22.636Z,16.83
2023-01-29T11:39:17.546Z,14.25
2023-01-29T11:41:49.432Z,14.50
2023-01-29T11:44:38.429Z,13.25
2023-01-29T11:47:26.702Z,16.00
2023-01-29T11:49:56.185Z,12.95
2023-01-29T11:52:51.862Z,13.48
2023-01-29T11:55:28.324Z,16.52
2023-01-29T12:00:38.743Z,21.90
2023-01-29T12:03:25.112Z,22.67
2023-01-29T12:06:02.426Z,15.55
2023-01-29T12:08:45.187Z,14.38
2023-01-29T12:11:32.431Z,14.57
2023-01-29T12:14:02.229Z,17.17
2023-01-29T12:16:35.916Z,14.68
2023-01-29T12:19:10.159Z,18.77
2023-01-29T12:21:55.612Z,15.32
2023-01-29T12:24:46.344Z,16.48
2023-01-29T12:33:03.048Z,16.27
2023-01-29T12:35:55.429Z,15.02
2023-01-29T12:38:28.131Z,16.75
2023-01-29T12:41:08.909Z,17.30
2023-01-29T12:43:35.473Z,16.67
2023-01-29T12:46:25.705Z,16.25
2023-01-29T12:49:03.391Z,17.27
2023-01-29T12:51:41.334Z,14.57
2023-01-29T12:56:47.300Z,16.15
2023-01-29T12:59:49.969Z,17.60
2023-01-29T13:02:21.082Z,16.75
2023-01-29T13:05:02.429Z,15.95
2023-01-29T13:07:41.166Z,14.50
2023-01-29T13:12:55.190Z,14.05
2023-01-29T13:15:45.642Z,17.00
2023-01-29T13:18:39.780Z,15.75
2023-01-29T13:21:11.027Z,16.15
2023-01-29T13:23:47.798Z,15.82
2023-01-29T13:26:21.979Z,17.25
2023-01-29T13:31:35.737Z,16.23
2023-01-29T13:34:23.296Z,14.40
2023-01-29T13:36:59.480Z,16.30
2023-01-29T13:42:14.767Z,13.80
2023-01-29T13:47:29.430Z,14.75
2023-01-29T13:52:36.239Z,14.32
2023-01-29T13:57:46.821Z,13.85
2023-01-29T14:00:22.487Z,16.48
2023-01-29T14:02:55.092Z,15.00
2023-01-29T14:05:30.641Z,17.45
2023-01-29T14:08:09.352Z,15.20
2023-01-29T14:10:37.776Z,15.77
2023-01-29T14:13:04.436Z,15.88
2023-01-29T14:15:38.242Z,14.02
2023-01-29T14:20:49.680Z,12.13
2023-01-29T14:23:46.706Z,14.20
2023-01-29T14:26:46.012Z,16.35
2023-01-29T14:29:14.555Z,14.25
2023-01-29T14:32:03.396Z,14.48
2023-01-29T14:35:00.654Z,14.38
2023-01-29T14:37:36.168Z,11.82
2023-01-29T14:40:21.162Z,15.18
2023-01-29T14:43:07.355Z,13.23
2023-01-29T14:45:42.677Z,16.65
2023-01-29T14:48:12.478Z,12.32
2023-01-29T14:50:46.507Z,12.82
2023-01-29T14:53:15.839Z,14.55
2023-01-29T14:56:03.813Z,13.73
2023-01-29T14:58:44.291Z,13.85
2023-01-29T15:01:23.012Z,14.40
2023-01-29T15:04:05.971Z,13.05
2023-01-29T15:06:49.603Z,13.85
2023-01-29T15:09:37.280Z,13.10
2023-01-29T15:12:30.013Z,13.23
2023-01-29T15:15:25.053Z,15.43
2023-01-29T15:18:20.052Z,11.60
2023-01-29T15:20:47.047Z,12.60
2023-01-29T15:23:31.862Z,13.63
2023-01-29T15:26:11.746Z,14.93
2023-01-29T15:28:47.077Z,14.13
2023-01-29T15:31:18.801Z,16.55
2023-01-29T15:33:50.747Z,13.70
2023-01-29T15:36:23.091Z,17.52
2023-01-29T15:39:04.896Z,15.98
2023-01-29T15:41:36.843Z,23.00
2023-01-29T15:46:48.972Z,21.98
2023-01-29T15:49:22.727Z,18.67
2023-01-29T15:52:02.237Z,16.40
2023-01-29T15:54:34.153Z,16.02
2023-01-29T15:57:02.487Z,14.43
2023-01-29T15:59:48.605Z,13.93
2023-01-29T16:02:22.791Z,15.50
2023-01-29T16:04:50.442Z,14.38
2023-01-29T16:07:20.181Z,15.35
2023-01-29T16:09:50.729Z,14.85
2023-01-29T16:12:18.061Z,16.90
2023-01-29T16:14:45.617Z,17.55
2023-01-29T16:17:27.415Z,16.83
2023-01-29T16:20:05.992Z,16.80
2023-01-29T16:22:38.072Z,16.80
2023-01-29T16:25:08.075Z,15.65
2023-01-29T16:27:35.280Z,17.20
2023-01-29T16:32:33.784Z,15.45
2023-01-29T16:37:36.533Z,18.05
2023-01-29T16:42:41.795Z,17.20
2023-01-29T16:45:31.539Z,18.83
2023-01-29T16:48:25.336Z,18.23
2023-01-29T16:51:17.879Z,18.63
2023-01-29T16:54:11.671Z,17.75
2023-01-29T16:57:05.718Z,17.20
2023-01-29T16:59:42.524Z,17.25
2023-01-29T17:02:33.695Z,17.42
2023-01-29T17:05:06.739Z,16.80
2023-01-29T17:07:35.372Z,18.92
2023-01-29T17:10:04.670Z,19.65
2023-01-29T17:12:50.889Z,18.95
2023-01-29T17:15:40.956Z,17.40
2023-01-29T17:18:26.890Z,19.92
2023-01-29T17:20:53.777Z,19.55
2023-01-29T17:23:21.773Z,21.33
2023-01-29T17:25:57.414Z,22.65
2023-01-29T17:28:25.062Z,23.45
2023-01-29T17:31:06.319Z,19.50
2023-01-29T17:33:38.302Z,20.77
2023-01-29T17:36:05.509Z,21.63
2023-01-29T17:38:35.400Z,21.77
2023-01-29T17:41:12.903Z,24.58
2023-01-29T17:48:41.899Z,24.65
2023-01-29T17:51:17.023Z,18.70
2023-01-29T17:53:47.933Z,20.10
2023-01-29T17:58:49.110Z,18.55
2023-01-29T18:03:43.365Z,18.25
2023-01-29T18:06:14.031Z,19.25
2023-01-29T18:08:40.831Z,18.27
2023-01-29T18:11:11.726Z,19.58
2023-01-29T18:13:38.465Z,22.42
2023-01-29T18:16:05.416Z,18.55
2023-01-29T18:18:32.168Z,23.95
2023-01-29T18:20:59.013Z,23.48
2023-01-29T18:23:26.036Z,23.70
2023-01-29T18:25:57.767Z,25.63
2023-01-29T18:28:25.215Z,30.20
2023-01-29T18:30:53.883Z,22.20
2023-01-29T18:35:50.845Z,23.20
2023-01-29T18:40:49.099Z,27.90
2023-01-29T18:45:43.335Z,27.58
2023-01-29T18:48:09.889Z,26.02
2023-01-29T18:50:36.580Z,34.03
2023-01-29T18:53:04.377Z,26.52
2023-01-29T18:55:31.017Z,32.20
2023-01-29T18:58:29.566Z,25.67
2023-01-29T19:00:44.714Z,28.00
2023-01-29T19:03:11.504Z,27.88
2023-01-29T19:05:38.269Z,25.98
2023-01-29T19:08:05.826Z,25.27
2023-01-29T19:10:32.358Z,27.27
2023-01-29T19:12:59.054Z,30.63
2023-01-29T19:15:25.708Z,37.28
2023-01-29T19:17:52.609Z,31.75
2023-01-29T19:20:19.359Z,36.45
2023-01-29T19:22:46.043Z,33.47
2023-01-29T19:25:12.848Z,29.98
2023-01-29T19:27:39.591Z,32.00
2023-01-29T19:30:06.821Z,31.17
2023-01-29T19:32:33.776Z,33.35
2023-01-29T19:35:00.839Z,31.00
2023-01-29T19:37:28.270Z,32.15
2023-01-29T19:39:54.845Z,32.88
2023-01-29T19:44:48.295Z,29.70
2023-01-29T19:47:15.158Z,33.75
2023-01-29T19:49:41.878Z,34.45
2023-01-29T19:52:14.783Z,32.97
2023-01-29T19:54:46.105Z,32.35
2023-01-29T19:57:12.728Z,30.58
2023-01-29T19:59:39.186Z,28.38
2023-01-29T20:02:06.265Z,28.17
2023-01-29T20:04:33.172Z,31.02
2023-01-29T20:07:00.018Z,38.08
2023-01-29T20:09:29.413Z,29.63
2023-01-29T20:11:56.128Z,32.92
2023-01-29T20:16:49.337Z,31.20
2023-01-29T20:19:16.215Z,27.80
2023-01-29T20:21:46.321Z,31.58
2023-01-29T20:24:13.366Z,27.45
2023-01-29T20:26:40.269Z,26.70
2023-01-29T20:29:06.889Z,28.55
2023-01-29T20:31:33.814Z,28.60
2023-01-29T20:34:00.553Z,27.23
2023-01-29T20:36:27.233Z,25.75
2023-01-29T20:38:53.869Z,33.13
2023-01-29T20:41:21.308Z,27.65
2023-01-29T20:43:50.211Z,29.60
2023-01-29T20:46:17.595Z,30.55
2023-01-29T20:51:16.615Z,29.33
2023-01-29T20:53:45.489Z,25.95
2023-01-29T20:56:13.536Z,28.23
2023-01-29T20:58:43.399Z,27.67
2023-01-29T21:01:15.565Z,31.58
2023-01-29T21:03:42.547Z,28.58
2023-01-29T21:06:10.702Z,28.75
2023-01-29T21:08:40.302Z,31.25
2023-01-29T21:11:08.695Z,29.38
2023-01-29T21:13:35.967Z,30.15
2023-01-29T21:16:02.658Z,28.23
2023-01-29T21:18:30.037Z,28.30
2023-01-29T21:20:56.579Z,29.67
2023-01-29T21:23:23.320Z,25.10
2023-01-29T21:25:49.945Z,28.48
2023-01-29T21:28:17.117Z,26.15
2023-01-29T21:33:10.451Z,31.27
2023-01-29T21:35:37.809Z,30.23
2023-01-29T21:38:05.061Z,27.88
2023-01-29T21:40:31.920Z,28.90
2023-01-29T21:43:24.445Z,32.70
2023-01-29T21:45:58.685Z,27.52
2023-01-29T21:48:26.298Z,30.30
2023-01-29T21:50:53.403Z,31.98
2023-01-29T21:53:19.961Z,30.50
2023-01-29T21:55:48.540Z,31.48
2023-01-29T21:58:15.303Z,31.88
2023-01-29T22:00:41.840Z,35.97
2023-01-29T22:03:08.506Z,36.00
2023-01-29T22:05:35.316Z,34.20
2023-01-29T22:08:02.501Z,35.78
2023-01-29T22:10:30.516Z,33.00
2023-01-29T22:12:59.257Z,33.90
2023-01-29T22:15:25.891Z,32.28
2023-01-29T22:17:52.436Z,36.13
2023-01-29T22:20:29.590Z,31.85
2023-01-29T22:23:00.631Z,36.00
2023-01-29T22:25:31.702Z,37.22
2023-01-29T22:27:58.468Z,35.08
2023-01-29T22:30:25.224Z,35.38
2023-01-29T22:32:51.891Z,32.33
2023-01-29T22:35:18.392Z,30.10
2023-01-29T22:40:12.681Z,31.75
2023-01-29T22:42:43.921Z,29.58
2023-01-29T22:45:13.711Z,29.58
2023-01-29T22:47:40.545Z,33.90
2023-01-29T22:50:08.028Z,31.65
2023-01-29T22:52:38.349Z,30.90
2023-01-29T22:55:07.910Z,24.48
2023-01-29T22:57:34.837Z,30.48
2023-01-29T23:00:01.604Z,26.63
2023-01-29T23:02:28.254Z,32.60
2023-01-29T23:04:54.981Z,29.85
2023-01-29T23:07:21.567Z,30.08
2023-01-29T23:12:15.170Z,30.33
2023-01-29T23:14:43.018Z,33.47
2023-01-29T23:17:10.104Z,31.27
2023-01-29T23:19:36.870Z,32.20
2023-01-29T23:22:03.727Z,31.08
2023-01-29T23:24:30.305Z,29.77
2023-01-29T23:27:14.605Z,28.50
2023-01-29T23:32:17.921Z,30.40
2023-01-29T23:37:11.519Z,30.00
2023-01-29T23:39:41.239Z,30.92
2023-01-29T23:42:07.990Z,32.88
2023-01-29T23:44:35.535Z,35.28
2023-01-29T23:47:02.059Z,30.80
2023-01-29T23:49:29.207Z,31.30
2023-01-29T23:51:55.773Z,32.35
2023-01-29T23:54:22.366Z,29.92
2023-01-29T23:56:49.028Z,29.63
2023-01-29T23:59:16.019Z,35.20
